Time;durP1;ratioP1;P1;durP2;ratioP2;P2;SDS_P1;SDS_P2;PMS_P1;PMS_P2;Temp;Humidity;BMP_temperature;BMP_pressure;BME280_temperature;BME280_humidity;BME280_pressure;Samples;Min_cycle;Max_cycle;Signal;HPM_P1;HPM_P2
2022/09/29 00:01:17;;;;;;;3.07;1.63;;;;;;;;;;5104492;28;20175;-82
2022/09/29 00:04:22;;;;;;;1.90;1.70;;;;;;;;;;5093729;28;20175;-82
2022/09/29 00:07:28;;;;;;;2.10;1.50;;;;;;;;;;5105256;28;20515;-82
2022/09/29 00:10:32;;;;;;;1.57;1.40;;;;;;;;;;5105218;28;20175;-82
2022/09/29 00:13:37;;;;;;;2.00;1.47;;;;;;;;;;5093342;28;20206;-82
2022/09/29 00:16:41;;;;;;;3.87;1.70;;;;;;;;;;5104881;28;20170;-82
2022/09/29 00:19:45;;;;;;;1.93;1.73;;;;;;;;;;5080014;28;20178;-82
2022/09/29 00:22:50;;;;;;;2.30;1.90;;;;;;;;;;5091366;28;20210;-82
2022/09/29 00:26:06;;;;;;;2.37;1.90;;;;;;;;;;5080481;28;20175;-82
2022/09/29 00:29:10;;;;;;;1.77;1.60;;;;;;;;;;5103833;28;20179;-83
2022/09/29 00:32:14;;;;;;;4.23;1.80;;;;;;;;;;5092024;28;20222;-82
2022/09/29 00:35:18;;;;;;;2.70;1.90;;;;;;;;;;5081487;28;20207;-82
2022/09/29 00:38:23;;;;;;;3.77;1.73;;;;;;;;;;5086253;28;20174;-82
2022/09/29 00:41:32;;;;;;;1.90;1.60;;;;;;;;;;5108666;28;20194;-82
2022/09/29 00:45:02;;;;;;;4.77;1.50;;;;;;;;;;5085788;28;20171;-82
2022/09/29 00:48:13;;;;;;;3.40;1.83;;;;;;;;;;5085414;28;20178;-82
2022/09/29 00:51:18;;;;;;;1.57;1.47;;;;;;;;;;5086277;28;20179;-83
2022/09/29 00:54:27;;;;;;;4.23;1.53;;;;;;;;;;5097252;28;20198;-83
2022/09/29 00:57:46;;;;;;;3.47;1.80;;;;;;;;;;5085246;28;20523;-82
2022/09/29 01:00:50;;;;;;;3.47;1.70;;;;;;;;;;5097266;28;20503;-82
2022/09/29 01:04:00;;;;;;;2.83;1.40;;;;;;;;;;5086293;28;20194;-82
2022/09/29 01:07:08;;;;;;;2.10;1.90;;;;;;;;;;5108537;28;20279;-83
2022/09/29 01:10:16;;;;;;;3.83;1.90;;;;;;;;;;5095387;28;20542;-82
2022/09/29 01:13:21;;;;;;;2.23;2.03;;;;;;;;;;5083485;28;20218;-82
2022/09/29 01:16:25;;;;;;;4.50;2.00;;;;;;;;;;5084400;28;20175;-82
2022/09/29 01:19:57;;;;;;;2.63;1.70;;;;;;;;;;5106900;28;20171;-82
2022/09/29 01:23:21;;;;;;;1.73;1.60;;;;;;;;;;5095825;28;20214;-82
2022/09/29 01:27:00;;;;;;;5.73;1.53;;;;;;;;;;5084009;28;20179;-82
2022/09/29 01:30:19;;;;;;;1.97;1.67;;;;;;;;;;5084891;28;20175;-82
2022/09/29 01:33:29;;;;;;;2.00;1.77;;;;;;;;;;5084269;28;20219;-82
2022/09/29 01:36:42;;;;;;;4.90;1.57;;;;;;;;;;5095793;28;20176;-82
2022/09/29 01:39:49;;;;;;;1.80;1.50;;;;;;;;;;5083845;28;20183;-82
2022/09/29 01:43:01;;;;;;;2.30;1.80;;;;;;;;;;5118428;28;20214;-82
2022/09/29 01:46:11;;;;;;;2.00;1.80;;;;;;;;;;5083589;28;20614;-82
2022/09/29 01:49:20;;;;;;;2.93;1.83;;;;;;;;;;5107498;28;20179;-82
2022/09/29 01:52:30;;;;;;;3.73;2.13;;;;;;;;;;5107392;28;20211;-82
2022/09/29 01:55:40;;;;;;;2.83;1.83;;;;;;;;;;5107555;28;20218;-82
2022/09/29 01:58:53;;;;;;;2.87;2.00;;;;;;;;;;5084315;28;20179;-82
2022/09/29 02:02:04;;;;;;;2.13;1.60;;;;;;;;;;5106510;28;20206;-82
2022/09/29 02:05:20;;;;;;;2.47;1.77;;;;;;;;;;5095407;28;20179;-82
2022/09/29 02:08:31;;;;;;;6.53;2.17;;;;;;;;;;5083880;28;20630;-82
2022/09/29 02:11:40;;;;;;;2.50;2.03;;;;;;;;;;5095251;28;20202;-82
2022/09/29 02:14:46;;;;;;;3.57;2.10;;;;;;;;;;5084048;28;20207;-82
2022/09/29 02:17:54;;;;;;;2.53;2.00;;;;;;;;;;5095044;28;20178;-82
2022/09/29 02:20:58;;;;;;;2.50;2.03;;;;;;;;;;5094693;28;20179;-82
2022/09/29 02:24:02;;;;;;;3.10;2.20;;;;;;;;;;5094013;28;20183;-82
2022/09/29 02:27:07;;;;;;;2.50;1.97;;;;;;;;;;5093983;28;20179;-83
2022/09/29 02:30:11;;;;;;;2.73;2.30;;;;;;;;;;5105314;28;20550;-82
2022/09/29 02:33:18;;;;;;;3.10;2.40;;;;;;;;;;5080993;28;20214;-83
2022/09/29 02:36:57;;;;;;;3.57;2.47;;;;;;;;;;5081259;28;20218;-83
2022/09/29 02:40:35;;;;;;;3.90;2.50;;;;;;;;;;5104180;28;20171;-82
2022/09/29 02:43:42;;;;;;;2.90;2.13;;;;;;;;;;5082402;28;20214;-82
2022/09/29 02:47:01;;;;;;;2.30;2.10;;;;;;;;;;5094504;28;20194;-82
2022/09/29 02:50:23;;;;;;;8.40;2.67;;;;;;;;;;5082417;28;20179;-82
2022/09/29 02:53:36;;;;;;;3.57;2.13;;;;;;;;;;5082386;28;20222;-82
2022/09/29 02:57:04;;;;;;;2.40;2.20;;;;;;;;;;5093021;28;20230;-81
2022/09/29 03:00:10;;;;;;;2.00;1.67;;;;;;;;;;5079240;28;20206;-81
2022/09/29 03:03:14;;;;;;;2.77;2.50;;;;;;;;;;5093138;28;20214;-82
2022/09/29 03:06:20;;;;;;;4.57;2.37;;;;;;;;;;5081729;28;20170;-81
2022/09/29 03:09:25;;;;;;;8.93;4.53;;;;;;;;;;5080994;28;20171;-82
2022/09/29 03:12:29;;;;;;;13.83;4.90;;;;;;;;;;5080656;28;20218;-82
2022/09/29 03:15:33;;;;;;;11.00;5.30;;;;;;;;;;5092261;28;20206;-82
2022/09/29 03:18:38;;;;;;;8.93;4.50;;;;;;;;;;5091108;28;20174;-83
2022/09/29 03:21:42;;;;;;;7.60;3.63;;;;;;;;;;5079741;28;20183;-82
2022/09/29 03:24:46;;;;;;;5.93;2.83;;;;;;;;;;5079511;28;20175;-82
2022/09/29 03:27:51;;;;;;;4.03;2.50;;;;;;;;;;5103271;28;20197;-82
2022/09/29 03:30:55;;;;;;;2.83;2.20;;;;;;;;;;5091822;28;20179;-82
2022/09/29 03:34:00;;;;;;;4.20;2.60;;;;;;;;;;5080092;28;20617;-82
2022/09/29 03:37:04;;;;;;;3.90;2.33;;;;;;;;;;5096997;28;20175;-82
2022/09/29 03:40:09;;;;;;;8.87;2.83;;;;;;;;;;5095432;28;20523;-82
2022/09/29 03:43:13;;;;;;;4.37;3.03;;;;;;;;;;5082927;28;20210;-82
2022/09/29 03:46:17;;;;;;;3.00;2.70;;;;;;;;;;5072143;28;20502;-82
2022/09/29 03:49:21;;;;;;;3.90;2.90;;;;;;;;;;5083495;28;20649;-82
2022/09/29 03:52:25;;;;;;;3.47;2.90;;;;;;;;;;5083068;28;20555;-82
2022/09/29 03:55:30;;;;;;;3.30;2.80;;;;;;;;;;5083138;28;20562;-82
2022/09/29 03:58:34;;;;;;;4.10;2.70;;;;;;;;;;5071148;28;20178;-82
2022/09/29 04:01:38;;;;;;;3.50;2.93;;;;;;;;;;5094650;28;20175;-81
2022/09/29 04:04:43;;;;;;;3.33;3.03;;;;;;;;;;5082929;28;20179;-82
2022/09/29 04:07:47;;;;;;;6.50;4.40;;;;;;;;;;5082605;28;20182;-82
2022/09/29 04:10:52;;;;;;;3.53;2.80;;;;;;;;;;5084461;28;20182;-81
2022/09/29 04:13:56;;;;;;;4.27;3.20;;;;;;;;;;5088007;28;20202;-82
2022/09/29 04:17:00;;;;;;;6.33;3.60;;;;;;;;;;5087371;28;20199;-82
2022/09/29 04:20:04;;;;;;;4.27;3.57;;;;;;;;;;5075944;28;20174;-82
2022/09/29 04:23:08;;;;;;;5.17;3.10;;;;;;;;;;5075486;28;20214;-83
2022/09/29 04:26:12;;;;;;;4.10;3.70;;;;;;;;;;5086869;28;20653;-82
2022/09/29 04:29:16;;;;;;;5.70;3.93;;;;;;;;;;5075716;28;20179;-83
2022/09/29 04:32:21;;;;;;;5.43;3.53;;;;;;;;;;5086961;28;20210;-82
2022/09/29 04:35:24;;;;;;;5.07;3.93;;;;;;;;;;5074871;28;20207;-83
2022/09/29 04:38:30;;;;;;;4.67;3.50;;;;;;;;;;5086854;28;20183;-83
2022/09/29 04:41:35;;;;;;;5.87;3.43;;;;;;;;;;5098543;28;20179;-82
2022/09/29 04:44:39;;;;;;;4.30;3.90;;;;;;;;;;5075298;28;20178;-83
2022/09/29 04:47:44;;;;;;;9.47;5.13;;;;;;;;;;5086750;28;20175;-83
2022/09/29 04:50:50;;;;;;;4.77;3.73;;;;;;;;;;5075095;28;20183;-82
2022/09/29 04:53:54;;;;;;;8.87;5.07;;;;;;;;;;5074236;28;20558;-83
2022/09/29 04:56:58;;;;;;;9.60;6.93;;;;;;;;;;5074389;28;20563;-83
2022/09/29 05:00:04;;;;;;;8.73;6.43;;;;;;;;;;5074595;28;20179;-82
2022/09/29 05:03:07;;;;;;;7.13;4.17;;;;;;;;;;5085397;28;20222;-84
2022/09/29 05:06:12;;;;;;;5.83;4.53;;;;;;;;;;5097475;28;20179;-83
2022/09/29 05:09:16;;;;;;;5.17;4.27;;;;;;;;;;5074040;28;20519;-82
2022/09/29 05:12:20;;;;;;;10.50;5.23;;;;;;;;;;5073478;28;20701;-82
2022/09/29 05:15:24;;;;;;;12.43;8.57;;;;;;;;;;5074612;28;20179;-82
2022/09/29 05:18:29;;;;;;;21.43;12.53;;;;;;;;;;5074329;28;20179;-82
2022/09/29 05:21:33;;;;;;;23.10;14.60;;;;;;;;;;5073575;28;20645;-83
2022/09/29 05:24:37;;;;;;;17.27;11.63;;;;;;;;;;5073753;28;20179;-83
2022/09/29 05:27:41;;;;;;;13.70;10.07;;;;;;;;;;5073849;28;20182;-83
2022/09/29 05:30:45;;;;;;;11.37;6.90;;;;;;;;;;5097137;28;20182;-83
2022/09/29 05:33:49;;;;;;;10.67;6.20;;;;;;;;;;5073105;28;20210;-83
2022/09/29 05:36:54;;;;;;;8.30;6.00;;;;;;;;;;5083893;28;20223;-83
2022/09/29 05:39:58;;;;;;;6.47;5.10;;;;;;;;;;5083979;28;20202;-83
2022/09/29 05:43:02;;;;;;;5.53;4.67;;;;;;;;;;5072500;28;20214;-84
2022/09/29 05:46:08;;;;;;;5.70;4.27;;;;;;;;;;5075108;28;20175;-84
2022/09/29 05:49:12;;;;;;;8.77;4.10;;;;;;;;;;5073048;28;20183;-83
2022/09/29 05:52:17;;;;;;;5.50;4.30;;;;;;;;;;5084822;28;20210;-83
2022/09/29 05:55:20;;;;;;;9.73;4.70;;;;;;;;;;5096592;28;20190;-83
2022/09/29 05:58:25;;;;;;;7.03;4.53;;;;;;;;;;5073024;28;20190;-81
2022/09/29 06:01:31;;;;;;;5.73;5.00;;;;;;;;;;5096193;28;20175;-81
2022/09/29 06:04:35;;;;;;;5.50;4.47;;;;;;;;;;5095625;28;20179;-81
2022/09/29 06:07:39;;;;;;;5.63;4.50;;;;;;;;;;5072219;28;20179;-81
2022/09/29 06:10:43;;;;;;;6.77;4.87;;;;;;;;;;5072449;28;20638;-82
2022/09/29 06:13:49;;;;;;;6.13;4.60;;;;;;;;;;5072069;28;20219;-81
2022/09/29 06:16:54;;;;;;;5.97;4.87;;;;;;;;;;5083659;28;20203;-81
2022/09/29 06:19:59;;;;;;;7.43;4.80;;;;;;;;;;5083723;28;20186;-82
2022/09/29 06:23:03;;;;;;;8.37;5.10;;;;;;;;;;5083360;28;20211;-81
2022/09/29 06:26:10;;;;;;;6.77;4.67;;;;;;;;;;5095495;28;20175;-81
2022/09/29 06:29:14;;;;;;;8.97;4.67;;;;;;;;;;5095654;28;20175;-82
2022/09/29 06:32:18;;;;;;;10.87;3.80;;;;;;;;;;5096549;28;20214;-82
2022/09/29 06:38:46;;;;;;;4.30;3.80;;;;;;;;;;5084455;28;20187;-83
2022/09/29 06:41:53;;;;;;;5.90;3.07;;;;;;;;;;5083969;28;20535;-84
2022/09/29 06:44:57;;;;;;;4.50;2.93;;;;;;;;;;5073201;28;20175;-83
2022/09/29 06:48:02;;;;;;;5.93;2.93;;;;;;;;;;5073717;28;20183;-83
2022/09/29 06:51:07;;;;;;;7.73;2.80;;;;;;;;;;5096132;28;20183;-83
2022/09/29 06:54:14;;;;;;;12.23;5.20;;;;;;;;;;5073822;28;20179;-83
2022/09/29 06:57:18;;;;;;;11.60;7.07;;;;;;;;;;5095663;28;20587;-84
2022/09/29 07:00:22;;;;;;;10.67;5.63;;;;;;;;;;5085706;28;20182;-83
2022/09/29 07:03:27;;;;;;;7.83;5.60;;;;;;;;;;5072388;28;20704;-81
2022/09/29 07:06:31;;;;;;;5.43;4.00;;;;;;;;;;5094091;28;20167;-82
2022/09/29 07:09:35;;;;;;;8.93;4.33;;;;;;;;;;5082937;28;20198;-81
2022/09/29 07:12:39;;;;;;;4.10;3.57;;;;;;;;;;5082384;28;20215;-81
2022/09/29 07:15:44;;;;;;;6.30;3.70;;;;;;;;;;5094401;28;20182;-82
2022/09/29 07:18:48;;;;;;;4.57;3.90;;;;;;;;;;5095042;28;20198;-81
2022/09/29 07:21:52;;;;;;;7.30;4.80;;;;;;;;;;5070894;28;20550;-81
2022/09/29 07:24:56;;;;;;;6.33;5.17;;;;;;;;;;5082150;28;20194;-81
2022/09/29 07:28:01;;;;;;;6.57;4.60;;;;;;;;;;5070508;28;20198;-81
2022/09/29 07:31:08;;;;;;;8.03;4.57;;;;;;;;;;5070639;28;20657;-81
2022/09/29 07:34:12;;;;;;;8.23;3.60;;;;;;;;;;5082401;28;20183;-81
2022/09/29 07:37:16;;;;;;;4.87;3.83;;;;;;;;;;5070826;28;20222;-81
2022/09/29 07:40:21;;;;;;;3.80;3.40;;;;;;;;;;5070921;28;20182;-81
2022/09/29 07:43:25;;;;;;;3.50;3.13;;;;;;;;;;5070762;28;20215;-81
2022/09/29 07:46:29;;;;;;;3.53;3.10;;;;;;;;;;5082078;28;20171;-81
2022/09/29 07:49:33;;;;;;;5.60;3.30;;;;;;;;;;5105619;28;20519;-81
2022/09/29 07:52:37;;;;;;;5.67;4.00;;;;;;;;;;5070634;28;20214;-81
2022/09/29 07:55:41;;;;;;;6.07;3.57;;;;;;;;;;5081853;28;20198;-81
2022/09/29 07:58:48;;;;;;;5.67;3.87;;;;;;;;;;5081884;28;20171;-81
2022/09/29 08:01:53;;;;;;;3.50;3.20;;;;;;;;;;5070524;28;20210;-81
2022/09/29 08:04:57;;;;;;;3.20;2.80;;;;;;;;;;5070536;28;20179;-81
2022/09/29 08:08:03;;;;;;;3.37;3.00;;;;;;;;;;5069909;28;20191;-81
2022/09/29 08:11:10;;;;;;;4.30;3.00;;;;;;;;;;5093648;28;20175;-81
2022/09/29 08:14:14;;;;;;;5.57;3.00;;;;;;;;;;5069868;28;20175;-81
2022/09/29 08:17:18;;;;;;;5.77;2.83;;;;;;;;;;5069956;28;20215;-81
2022/09/29 08:20:23;;;;;;;3.43;2.77;;;;;;;;;;5093548;28;20182;-81
2022/09/29 08:23:27;;;;;;;3.40;3.10;;;;;;;;;;5093093;28;20218;-82
2022/09/29 08:26:34;;;;;;;3.50;2.87;;;;;;;;;;5070074;28;20166;-81
2022/09/29 08:29:38;;;;;;;6.97;3.07;;;;;;;;;;5081458;28;20174;-81
2022/09/29 08:32:42;;;;;;;3.27;2.70;;;;;;;;;;5070149;28;20218;-81
2022/09/29 08:35:53;;;;;;;3.43;2.90;;;;;;;;;;5081658;28;20194;-81
2022/09/29 08:38:58;;;;;;;7.53;3.00;;;;;;;;;;5070279;28;20504;-81
2022/09/29 08:42:28;;;;;;;2.60;2.40;;;;;;;;;;5093297;28;20207;-81
2022/09/29 08:45:39;;;;;;;5.90;2.43;;;;;;;;;;5093413;28;20175;-82
2022/09/29 08:48:44;;;;;;;3.17;2.43;;;;;;;;;;5082772;28;20179;-81
2022/09/29 08:51:53;;;;;;;3.10;2.70;;;;;;;;;;5081546;28;20171;-81
2022/09/29 08:55:17;;;;;;;3.67;2.43;;;;;;;;;;5093038;28;20187;-81
2022/09/29 08:58:22;;;;;;;3.60;2.37;;;;;;;;;;5090097;28;20210;-81
2022/09/29 09:01:26;;;;;;;3.73;2.37;;;;;;;;;;5096897;28;20642;-81
2022/09/29 09:04:55;;;;;;;2.70;2.10;;;;;;;;;;5085037;28;20182;-81
2022/09/29 09:08:05;;;;;;;4.23;2.90;;;;;;;;;;5080434;28;20183;-81
2022/09/29 09:11:26;;;;;;;3.30;2.40;;;;;;;;;;5108903;28;20179;-81
2022/09/29 09:14:48;;;;;;;2.83;2.03;;;;;;;;;;5096953;28;20187;-81
2022/09/29 09:18:12;;;;;;;3.53;2.30;;;;;;;;;;5109148;28;20211;-81
2022/09/29 09:21:34;;;;;;;4.60;2.13;;;;;;;;;;5073498;28;20175;-81
2022/09/29 09:25:24;;;;;;;3.57;2.73;;;;;;;;;;5084431;28;20179;-81
2022/09/29 09:28:41;;;;;;;6.50;3.77;;;;;;;;;;5035949;28;20197;-82
2022/09/29 09:31:55;;;;;;;8.80;4.10;;;;;;;;;;5027282;28;20687;-81
2022/09/29 09:35:18;;;;;;;7.10;4.90;;;;;;;;;;5084536;28;20183;-81
2022/09/29 09:38:27;;;;;;;6.07;4.00;;;;;;;;;;5096394;28;20215;-80
2022/09/29 09:41:34;;;;;;;3.90;3.10;;;;;;;;;;5084509;28;20171;-81
2022/09/29 09:44:48;;;;;;;4.67;3.13;;;;;;;;;;5095762;28;20224;-80
2022/09/29 09:48:05;;;;;;;3.73;3.20;;;;;;;;;;5096289;28;20179;-81
2022/09/29 09:51:30;;;;;;;7.10;2.53;;;;;;;;;;5095696;28;20187;-80
2022/09/29 09:54:38;;;;;;;4.53;2.80;;;;;;;;;;5095724;28;20175;-81
2022/09/29 09:57:51;;;;;;;3.70;2.47;;;;;;;;;;5095990;28;20243;-81
2022/09/29 10:00:59;;;;;;;7.43;4.80;;;;;;;;;;5083651;28;20527;-81
2022/09/29 10:04:03;;;;;;;4.07;2.77;;;;;;;;;;5083559;28;20183;-81
2022/09/29 10:07:08;;;;;;;4.80;2.70;;;;;;;;;;5083566;28;20174;-81
2022/09/29 10:10:19;;;;;;;2.97;2.40;;;;;;;;;;5095804;28;20195;-81
2022/09/29 10:13:26;;;;;;;5.50;4.23;;;;;;;;;;5072414;28;20214;-81
2022/09/29 10:16:44;;;;;;;9.30;4.90;;;;;;;;;;5094967;28;20278;-81
2022/09/29 10:19:56;;;;;;;5.63;3.40;;;;;;;;;;5083372;28;20203;-81
2022/09/29 10:23:25;;;;;;;3.40;2.60;;;;;;;;;;5094841;28;20223;-81
2022/09/29 10:26:34;;;;;;;2.87;2.50;;;;;;;;;;5083428;28;20183;-81
2022/09/29 10:29:40;;;;;;;3.43;2.17;;;;;;;;;;5095200;28;20171;-81
2022/09/29 10:32:46;;;;;;;3.37;2.33;;;;;;;;;;5095694;28;20701;-79
2022/09/29 10:36:04;;;;;;;29.17;8.17;;;;;;;;;;5094810;28;20179;-81
2022/09/29 10:39:29;;;;;;;10.00;2.60;;;;;;;;;;5071230;28;20211;-81
2022/09/29 10:42:36;;;;;;;4.87;2.50;;;;;;;;;;5095620;28;20218;-81
2022/09/29 10:45:46;;;;;;;4.43;2.33;;;;;;;;;;5106261;28;20658;-81
2022/09/29 10:49:15;;;;;;;2.43;2.13;;;;;;;;;;5095742;28;20527;-81
2022/09/29 10:52:25;;;;;;;4.33;2.20;;;;;;;;;;5072679;28;20694;-81
2022/09/29 10:55:32;;;;;;;3.53;2.23;;;;;;;;;;5094663;28;20194;-81
2022/09/29 10:58:41;;;;;;;3.90;2.30;;;;;;;;;;5094475;28;20211;-81
2022/09/29 11:01:59;;;;;;;2.20;1.83;;;;;;;;;;5094665;28;20629;-82
2022/09/29 11:05:24;;;;;;;6.27;2.07;;;;;;;;;;5071243;28;20179;-80
2022/09/29 11:08:29;;;;;;;2.20;1.63;;;;;;;;;;5084174;28;20175;-82
2022/09/29 11:11:39;;;;;;;2.87;2.07;;;;;;;;;;5094554;28;20175;-81
2022/09/29 11:14:43;;;;;;;2.80;1.90;;;;;;;;;;5070889;28;20618;-82
2022/09/29 11:17:49;;;;;;;2.27;1.50;;;;;;;;;;5082003;28;20662;-81
2022/09/29 11:21:20;;;;;;;1.73;1.63;;;;;;;;;;5081413;28;20175;-81
2022/09/29 11:24:27;;;;;;;2.30;1.73;;;;;;;;;;5082525;28;20182;-81
2022/09/29 11:27:43;;;;;;;1.60;1.50;;;;;;;;;;5070978;28;20553;-80
2022/09/29 11:30:47;;;;;;;1.97;1.37;;;;;;;;;;5081842;28;20191;-81
2022/09/29 11:34:11;;;;;;;2.83;1.67;;;;;;;;;;5070480;28;20214;-81
2022/09/29 11:37:41;;;;;;;1.60;1.50;;;;;;;;;;5105599;28;20179;-81
2022/09/29 11:41:30;;;;;;;2.53;1.87;;;;;;;;;;5054044;28;20198;-82
2022/09/29 11:44:46;;;;;;;3.10;2.00;;;;;;;;;;5082803;28;20199;-81
2022/09/29 11:47:59;;;;;;;1.93;1.77;;;;;;;;;;5095111;28;20171;-81
2022/09/29 11:51:29;;;;;;;3.00;1.90;;;;;;;;;;5085260;28;20190;-82
2022/09/29 11:54:50;;;;;;;3.73;2.23;;;;;;;;;;5096749;28;20183;-82
2022/09/29 11:58:32;;;;;;;2.37;1.80;;;;;;;;;;5087589;28;20215;-81
2022/09/29 12:02:01;;;;;;;1.87;1.73;;;;;;;;;;5073026;28;20514;-81
2022/09/29 12:05:35;;;;;;;2.43;2.20;;;;;;;;;;5095537;28;20179;-81
2022/09/29 12:08:45;;;;;;;4.33;2.53;;;;;;;;;;5072348;28;20175;-82
2022/09/29 12:11:52;;;;;;;4.50;2.47;;;;;;;;;;5086948;28;20179;-81
2022/09/29 12:15:15;;;;;;;4.60;2.60;;;;;;;;;;5074801;28;20174;-81
2022/09/29 12:18:55;;;;;;;2.30;2.00;;;;;;;;;;5074423;28;20203;-81
2022/09/29 12:22:02;;;;;;;3.10;2.23;;;;;;;;;;5084866;28;20214;-81
2022/09/29 12:25:15;;;;;;;4.20;2.03;;;;;;;;;;5096519;28;20183;-81
2022/09/29 12:28:22;;;;;;;3.90;2.13;;;;;;;;;;5096853;28;20179;-81
2022/09/29 12:31:31;;;;;;;3.03;2.60;;;;;;;;;;5097397;28;20195;-80
2022/09/29 12:34:50;;;;;;;2.57;2.23;;;;;;;;;;5102168;28;20187;-81
2022/09/29 12:38:14;;;;;;;2.77;1.80;;;;;;;;;;5077541;28;20214;-81
2022/09/29 12:41:28;;;;;;;4.57;2.30;;;;;;;;;;5077034;28;20622;-80
2022/09/29 12:44:39;;;;;;;4.60;2.43;;;;;;;;;;5099811;28;20187;-80
2022/09/29 12:47:51;;;;;;;2.73;1.97;;;;;;;;;;5100623;28;20187;-81
2022/09/29 12:51:12;;;;;;;5.10;2.10;;;;;;;;;;5100434;28;20195;-81
2022/09/29 12:54:38;;;;;;;2.30;2.00;;;;;;;;;;5075902;28;20183;-80
2022/09/29 12:57:47;;;;;;;2.70;1.70;;;;;;;;;;5100616;28;20175;-80
2022/09/29 13:01:11;;;;;;;3.10;1.87;;;;;;;;;;5088129;28;20187;-80
2022/09/29 13:04:38;;;;;;;4.10;2.10;;;;;;;;;;5099219;28;20179;-81
2022/09/29 13:07:58;;;;;;;3.00;1.80;;;;;;;;;;5085882;28;20202;-80
2022/09/29 13:11:40;;;;;;;2.53;2.20;;;;;;;;;;5076122;28;20179;-80
2022/09/29 13:15:29;;;;;;;2.40;1.87;;;;;;;;;;5076689;28;20195;-81
2022/09/29 13:18:49;;;;;;;3.23;2.10;;;;;;;;;;5033028;28;20213;-82
2022/09/29 13:22:35;;;;;;;3.57;2.20;;;;;;;;;;5087579;28;20211;-82
2022/09/29 13:25:39;;;;;;;2.50;1.90;;;;;;;;;;5077360;28;20623;-81
2022/09/29 13:28:50;;;;;;;6.20;3.17;;;;;;;;;;5098636;28;20170;-81
2022/09/29 13:31:56;;;;;;;2.10;1.50;;;;;;;;;;5087330;28;20215;-80
2022/09/29 13:35:01;;;;;;;2.50;2.10;;;;;;;;;;5098840;28;20195;-82
2022/09/29 13:38:13;;;;;;;2.73;1.87;;;;;;;;;;5098381;28;20207;-82
2022/09/29 13:41:20;;;;;;;2.77;1.83;;;;;;;;;;5099312;28;20175;-82
2022/09/29 13:44:27;;;;;;;2.30;1.50;;;;;;;;;;5110980;28;20183;-82
2022/09/29 13:47:33;;;;;;;2.87;1.90;;;;;;;;;;5100226;28;20179;-82
2022/09/29 13:50:48;;;;;;;2.27;1.50;;;;;;;;;;5087796;28;20511;-82
2022/09/29 13:54:22;;;;;;;4.13;1.90;;;;;;;;;;5076566;28;20249;-82
2022/09/29 13:57:27;;;;;;;3.47;2.13;;;;;;;;;;5100220;28;20531;-82
2022/09/29 14:00:31;;;;;;;3.03;2.13;;;;;;;;;;5075119;28;20171;-82
2022/09/29 14:03:40;;;;;;;3.17;2.37;;;;;;;;;;5099093;28;20214;-82
2022/09/29 14:06:46;;;;;;;5.13;2.57;;;;;;;;;;5099290;28;20191;-82
2022/09/29 14:09:51;;;;;;;4.83;3.00;;;;;;;;;;5086926;28;20175;-82
2022/09/29 14:13:24;;;;;;;2.50;2.27;;;;;;;;;;5075521;28;20207;-82
2022/09/29 14:16:31;;;;;;;2.23;2.03;;;;;;;;;;5037929;28;20539;-82
2022/09/29 14:19:38;;;;;;;3.10;1.93;;;;;;;;;;5086768;28;20203;-82
2022/09/29 14:22:42;;;;;;;3.23;2.00;;;;;;;;;;5087795;28;20210;-82
2022/09/29 14:25:52;;;;;;;1.90;1.80;;;;;;;;;;5088352;28;20199;-82
2022/09/29 14:28:58;;;;;;;5.70;2.20;;;;;;;;;;5100262;28;20182;-82
2022/09/29 14:32:03;;;;;;;1.83;1.70;;;;;;;;;;5076999;28;20210;-81
2022/09/29 14:35:17;;;;;;;3.60;1.77;;;;;;;;;;5100599;28;20191;-82
2022/09/29 14:38:27;;;;;;;1.93;1.77;;;;;;;;;;5076708;28;20207;-81
2022/09/29 14:41:41;;;;;;;3.17;2.13;;;;;;;;;;5075977;28;20179;-82
2022/09/29 14:52:00;;;;;;;5.97;2.07;;;;;;;;;;5099521;28;20195;-82
2022/09/29 14:55:34;;;;;;;5.80;2.03;;;;;;;;;;5098359;28;20183;-82
2022/09/29 14:59:04;;;;;;;2.07;1.80;;;;;;;;;;5070712;28;20227;-82
2022/09/29 15:02:20;;;;;;;3.00;1.80;;;;;;;;;;5099528;28;20218;-81
2022/09/29 15:05:30;;;;;;;2.50;1.70;;;;;;;;;;5076246;28;20195;-82
2022/09/29 15:08:36;;;;;;;2.53;1.80;;;;;;;;;;5087729;28;20175;-82
2022/09/29 15:12:03;;;;;;;3.77;1.60;;;;;;;;;;5110784;28;20171;-81
2022/09/29 15:15:37;;;;;;;6.63;1.80;;;;;;;;;;5099440;28;20179;-81
2022/09/29 15:19:09;;;;;;;3.20;1.80;;;;;;;;;;5099539;28;20215;-81
2022/09/29 15:22:34;;;;;;;2.03;1.80;;;;;;;;;;5088013;28;20214;-82
2022/09/29 15:25:43;;;;;;;2.13;1.70;;;;;;;;;;5076712;28;20175;-81
2022/09/29 15:28:47;;;;;;;3.40;1.83;;;;;;;;;;5076261;28;20175;-82
2022/09/29 15:31:53;;;;;;;3.23;2.27;;;;;;;;;;5075791;28;20183;-81
2022/09/29 15:35:03;;;;;;;3.17;2.03;;;;;;;;;;5087191;28;20174;-82
2022/09/29 15:38:31;;;;;;;4.40;2.60;;;;;;;;;;5087231;28;20175;-81
2022/09/29 15:41:35;;;;;;;4.07;2.70;;;;;;;;;;5086822;28;20178;-81
2022/09/29 15:44:45;;;;;;;3.53;2.60;;;;;;;;;;5072741;28;20637;-81
2022/09/29 15:48:05;;;;;;;7.70;4.10;;;;;;;;;;5082847;28;20194;-81
2022/09/29 15:51:17;;;;;;;5.67;3.53;;;;;;;;;;5094442;28;20175;-81
2022/09/29 15:54:22;;;;;;;3.70;3.10;;;;;;;;;;5085806;28;20669;-82
2022/09/29 15:57:42;;;;;;;4.93;2.80;;;;;;;;;;5096249;28;20203;-82
2022/09/29 16:00:47;;;;;;;2.87;1.83;;;;;;;;;;5074189;28;20171;-81
2022/09/29 16:03:56;;;;;;;3.77;2.30;;;;;;;;;;5099066;28;20678;-82
2022/09/29 16:07:00;;;;;;;3.13;2.20;;;;;;;;;;5087896;28;20195;-82
2022/09/29 16:10:13;;;;;;;3.30;2.17;;;;;;;;;;5078530;28;20174;-82
2022/09/29 16:13:21;;;;;;;3.47;2.20;;;;;;;;;;5088310;28;20215;-81
2022/09/29 16:16:29;;;;;;;4.33;1.70;;;;;;;;;;5100432;28;20183;-81
2022/09/29 16:19:33;;;;;;;4.13;1.90;;;;;;;;;;5088425;28;20211;-81
2022/09/29 16:22:38;;;;;;;2.20;1.90;;;;;;;;;;5088339;28;20558;-82
2022/09/29 16:25:43;;;;;;;3.97;2.40;;;;;;;;;;5090239;28;20183;-82
2022/09/29 16:29:24;;;;;;;4.83;2.43;;;;;;;;;;5090861;28;20175;-82
2022/09/29 16:32:34;;;;;;;3.97;2.30;;;;;;;;;;5020257;28;20576;-82
2022/09/29 16:35:40;;;;;;;6.53;4.53;;;;;;;;;;5075731;28;20191;-81
2022/09/29 16:38:46;;;;;;;3.87;3.27;;;;;;;;;;5087554;28;20171;-82
2022/09/29 16:41:53;;;;;;;3.97;3.00;;;;;;;;;;5098166;28;20530;-83
2022/09/29 16:44:58;;;;;;;6.10;3.20;;;;;;;;;;5077677;28;20183;-82
2022/09/29 16:48:02;;;;;;;3.47;3.03;;;;;;;;;;5087762;28;20630;-82
2022/09/29 16:51:13;;;;;;;4.77;3.63;;;;;;;;;;5078606;28;20238;-81
2022/09/29 16:54:27;;;;;;;5.10;4.17;;;;;;;;;;5099921;28;20179;-82
2022/09/29 16:57:33;;;;;;;5.40;4.43;;;;;;;;;;5077350;28;20191;-83
2022/09/29 17:00:38;;;;;;;5.00;4.20;;;;;;;;;;5088609;28;20198;-81
2022/09/29 17:03:42;;;;;;;4.43;4.03;;;;;;;;;;5089664;28;20214;-81
2022/09/29 17:06:47;;;;;;;4.00;3.60;;;;;;;;;;5087300;28;20198;-83
2022/09/29 17:09:54;;;;;;;7.13;3.97;;;;;;;;;;5087591;28;20186;-82
2022/09/29 17:12:58;;;;;;;6.53;3.20;;;;;;;;;;5098820;28;20218;-82
2022/09/29 17:16:06;;;;;;;4.33;3.50;;;;;;;;;;5098626;28;20179;-83
2022/09/29 17:19:11;;;;;;;4.77;3.27;;;;;;;;;;5098268;28;20215;-83
2022/09/29 17:22:27;;;;;;;4.97;3.67;;;;;;;;;;5102037;28;20213;-83
2022/09/29 17:25:32;;;;;;;6.97;3.10;;;;;;;;;;5097541;28;20658;-82
2022/09/29 17:28:36;;;;;;;4.50;3.57;;;;;;;;;;5100768;28;20507;-82
2022/09/29 17:31:40;;;;;;;3.83;3.13;;;;;;;;;;5077406;28;20179;-81
2022/09/29 17:34:45;;;;;;;3.83;3.27;;;;;;;;;;5077428;28;20183;-81
2022/09/29 17:37:49;;;;;;;4.23;3.40;;;;;;;;;;5111862;28;20195;-82
2022/09/29 17:41:03;;;;;;;5.50;3.53;;;;;;;;;;5090479;28;20681;-81
2022/09/29 17:44:09;;;;;;;4.23;3.67;;;;;;;;;;5101656;28;20179;-81
2022/09/29 17:47:14;;;;;;;6.37;3.77;;;;;;;;;;5077862;28;20186;-82
2022/09/29 17:50:39;;;;;;;4.50;3.43;;;;;;;;;;5089205;28;20190;-82
2022/09/29 17:53:44;;;;;;;6.00;3.20;;;;;;;;;;5102243;28;20587;-82
2022/09/29 17:56:48;;;;;;;4.80;2.83;;;;;;;;;;5089907;28;20194;-81
2022/09/29 17:59:53;;;;;;;4.77;3.03;;;;;;;;;;5082147;28;20208;-81
2022/09/29 18:02:58;;;;;;;3.60;2.67;;;;;;;;;;5066942;28;20219;-82
2022/09/29 18:06:04;;;;;;;5.10;3.90;;;;;;;;;;5067882;28;20671;-82
2022/09/29 18:09:17;;;;;;;6.00;3.80;;;;;;;;;;5079952;28;20188;-81
2022/09/29 18:12:21;;;;;;;4.37;3.20;;;;;;;;;;5079243;28;20215;-81
2022/09/29 18:15:26;;;;;;;5.10;3.27;;;;;;;;;;5079802;28;20190;-81
2022/09/29 18:18:34;;;;;;;3.13;2.83;;;;;;;;;;5057361;28;20171;-82
2022/09/29 18:21:38;;;;;;;3.53;3.07;;;;;;;;;;5070674;28;20180;-81
2022/09/29 18:24:43;;;;;;;3.63;3.33;;;;;;;;;;5067742;28;20175;-80
2022/09/29 18:27:48;;;;;;;4.23;3.07;;;;;;;;;;5079779;28;20188;-79
2022/09/29 18:31:11;;;;;;;9.07;3.00;;;;;;;;;;5080424;28;20175;-80
2022/09/29 18:34:17;;;;;;;4.50;2.97;;;;;;;;;;5078761;28;20180;-80
2022/09/29 18:37:21;;;;;;;3.50;3.10;;;;;;;;;;5068588;28;20175;-81
2022/09/29 18:40:28;;;;;;;4.23;3.20;;;;;;;;;;5091574;28;20682;-82
2022/09/29 18:43:33;;;;;;;8.17;3.33;;;;;;;;;;5066284;28;20211;-80
2022/09/29 18:46:36;;;;;;;7.63;3.90;;;;;;;;;;5090878;28;20674;-80
2022/09/29 18:49:41;;;;;;;6.80;4.27;;;;;;;;;;5080935;28;20168;-81
2022/09/29 18:52:49;;;;;;;5.20;3.90;;;;;;;;;;5068083;28;20215;-81
2022/09/29 18:56:02;;;;;;;7.00;4.17;;;;;;;;;;5080003;28;20203;-81
2022/09/29 18:59:11;;;;;;;8.53;4.20;;;;;;;;;;5091052;28;20184;-80
2022/09/29 19:02:15;;;;;;;5.13;4.50;;;;;;;;;;5078645;28;20224;-81
2022/09/29 19:05:22;;;;;;;5.70;3.90;;;;;;;;;;5078185;28;20179;-80
2022/09/29 19:08:26;;;;;;;6.03;4.80;;;;;;;;;;5080314;28;20536;-80
2022/09/29 19:11:31;;;;;;;5.37;4.50;;;;;;;;;;5078284;28;20191;-79